Time;durP1;ratioP1;P1;durP2;ratioP2;P2;SDS_P1;SDS_P2;PMS_P1;PMS_P2;Temp;Humidity;BMP_temperature;BMP_pressure;BME280_temperature;BME280_humidity;BME280_pressure;Samples;Min_cycle;Max_cycle;Signal;HPM_P1;HPM_P2
2023/02/04 00:00:49;;;;;;;0.20;0.20;;;;;;;4.27;82.24;99207.53;5074487;28;20029;-65
2023/02/04 00:03:18;;;;;;;0.40;0.40;;;;;;;4.30;81.77;99201.69;5073942;28;20048;-66
2023/02/04 00:05:47;;;;;;;0.15;0.15;;;;;;;4.29;82.47;99194.97;5074069;28;20131;-68
2023/02/04 00:08:16;;;;;;;0.20;0.20;;;;;;;4.27;81.87;99207.53;5074011;28;20029;-67
2023/02/04 00:10:46;;;;;;;0.40;0.40;;;;;;;4.30;81.94;99197.50;5074342;28;20127;-66
2023/02/04 00:13:16;;;;;;;0.43;0.43;;;;;;;4.28;81.97;99201.69;5073995;28;20132;-67
2023/02/04 00:15:46;;;;;;;0.20;0.20;;;;;;;4.29;82.05;99194.97;5073955;28;20114;-66
2023/02/04 00:18:15;;;;;;;0.30;0.30;;;;;;;4.27;82.35;99196.63;5073908;28;20098;-66
2023/02/04 00:20:43;;;;;;;5.57;1.60;;;;;;;4.27;82.36;99186.50;5073863;28;20033;-66
2023/02/04 00:23:13;;;;;;;0.30;0.30;;;;;;;4.27;82.45;99186.50;5073787;28;20041;-67
2023/02/04 00:25:41;;;;;;;0.20;0.20;;;;;;;4.29;82.53;99184.84;5073716;28;20067;-67
2023/02/04 00:28:10;;;;;;;0.97;0.97;;;;;;;4.30;82.49;99181.50;5073658;28;20071;-67
2023/02/04 00:30:41;;;;;;;2.92;0.82;;;;;;;4.32;81.86;99179.88;5072562;28;20775;-68
2023/02/04 00:33:09;;;;;;;0.30;0.30;;;;;;;4.33;82.31;99181.53;5073728;28;20131;-66
2023/02/04 00:35:38;;;;;;;0.20;0.20;;;;;;;4.43;82.03;99178.34;5072438;28;20060;-67
2023/02/04 00:38:07;;;;;;;0.30;0.30;;;;;;;4.46;81.63;99178.41;5073658;28;20123;-65
2023/02/04 00:40:36;;;;;;;1.95;1.85;;;;;;;4.34;81.50;99153.81;5073968;28;20138;-66
2023/02/04 00:43:05;;;;;;;0.30;0.30;;;;;;;4.47;81.55;99172.50;5073580;28;20052;-68
2023/02/04 00:45:34;;;;;;;0.57;0.57;;;;;;;4.47;81.61;99175.03;5072330;28;20037;-65
2023/02/04 00:48:04;;;;;;;0.70;0.70;;;;;;;4.43;81.16;99163.19;5073718;28;20313;-67
2023/02/04 00:50:38;;;;;;;0.75;0.75;;;;;;;4.51;81.08;99181.84;5073509;28;20565;-67
2023/02/04 00:53:08;;;;;;;0.40;0.40;;;;;;;4.55;80.60;99174.34;5072387;28;20482;-66
2023/02/04 00:55:37;;;;;;;0.30;0.30;;;;;;;4.56;80.55;99170.09;5073496;28;20049;-67
2023/02/04 00:58:05;;;;;;;0.40;0.40;;;;;;;4.40;80.39;99151.34;5073401;28;20128;-65
2023/02/04 01:00:34;;;;;;;0.30;0.30;;;;;;;4.40;79.76;99138.72;5072828;28;20375;-65
2023/02/04 01:03:04;;;;;;;7.13;1.83;;;;;;;4.55;79.97;99168.41;5073179;28;20543;-66
2023/02/04 01:05:33;;;;;;;0.30;0.30;;;;;;;4.57;79.82;99166.75;5072770;28;20666;-67
2023/02/04 01:08:02;;;;;;;1.20;1.13;;;;;;;4.55;79.40;99165.91;5073520;28;20040;-66
2023/02/04 01:10:31;;;;;;;0.50;0.50;;;;;;;4.52;79.64;99166.69;5073279;28;20174;-64
2023/02/04 01:13:00;;;;;;;0.20;0.20;;;;;;;4.49;79.46;99163.25;5073880;28;20489;-65
2023/02/04 01:15:29;;;;;;;0.95;0.95;;;;;;;4.50;79.18;99180.13;5073571;28;20043;-66
2023/02/04 01:17:58;;;;;;;0.30;0.30;;;;;;;4.51;78.96;99181.84;5073220;28;20041;-64
2023/02/04 01:20:29;;;;;;;0.52;0.52;;;;;;;4.43;79.03;99163.19;5073825;28;20044;-65
2023/02/04 01:22:58;;;;;;;0.20;0.20;;;;;;;4.38;79.06;99172.38;5073248;28;20048;-64
2023/02/04 01:25:27;;;;;;;0.30;0.30;;;;;;;4.40;79.19;99188.38;5073191;28;20041;-65
2023/02/04 01:27:55;;;;;;;0.23;0.23;;;;;;;4.37;79.51;99183.28;5073326;28;20757;-64
2023/02/04 01:30:24;;;;;;;0.30;0.30;;;;;;;4.35;79.91;99195.03;5073283;28;20037;-64
2023/02/04 01:32:53;;;;;;;0.50;0.50;;;;;;;4.33;79.84;99179.00;5071929;28;20562;-65
2023/02/04 01:35:22;;;;;;;0.43;0.43;;;;;;;4.14;80.74;99154.28;5073107;28;20048;-65
2023/02/04 01:37:54;;;;;;;1.35;0.93;;;;;;;4.26;81.08;99174.69;5076033;28;20102;-65
2023/02/04 01:40:23;;;;;;;0.30;0.30;;;;;;;4.16;81.64;99173.69;5077493;28;20139;-65
2023/02/04 01:42:52;;;;;;;0.90;0.90;;;;;;;4.20;81.69;99187.25;5076816;28;20048;-66
2023/02/04 01:45:21;;;;;;;0.40;0.40;;;;;;;4.14;81.76;99179.53;5075911;28;20521;-65
2023/02/04 01:47:50;;;;;;;0.23;0.23;;;;;;;4.12;82.28;99181.19;5076799;28;20040;-66
2023/02/04 01:50:19;;;;;;;0.40;0.40;;;;;;;4.07;81.98;99176.94;5076557;28;20043;-65
2023/02/04 01:52:48;;;;;;;0.30;0.30;;;;;;;4.06;82.09;99166.78;5075704;28;20449;-66
2023/02/04 01:55:25;;;;;;;0.20;0.20;;;;;;;4.05;82.67;99173.50;5076577;28;20051;-66
2023/02/04 01:57:54;;;;;;;0.60;0.60;;;;;;;4.04;82.22;99171.81;5076876;28;20041;-66
2023/02/04 02:00:26;;;;;;;0.30;0.30;;;;;;;4.04;82.45;99179.41;5075300;28;20040;-66
2023/02/04 02:02:56;;;;;;;2.20;1.48;;;;;;;3.99;83.01;99173.41;5075128;28;20126;-65
2023/02/04 02:05:31;;;;;;;3.00;1.45;;;;;;;4.05;83.07;99178.56;5075559;28;20040;-66
2023/02/04 02:08:03;;;;;;;0.68;0.43;;;;;;;4.04;82.75;99171.81;5075527;28;20098;-65
2023/02/04 02:10:35;;;;;;;0.35;0.35;;;;;;;4.00;83.43;99165.03;5075058;28;20117;-66
2023/02/04 02:13:04;;;;;;;0.43;0.43;;;;;;;3.98;83.11;99164.13;5076296;28;20054;-66
2023/02/04 02:15:33;;;;;;;0.30;0.30;;;;;;;3.99;83.68;99165.00;5076852;28;20044;-66
2023/02/04 02:18:02;;;;;;;0.70;0.63;;;;;;;3.99;83.43;99165.84;5076161;28;20036;-66
2023/02/04 02:20:31;;;;;;;0.50;0.50;;;;;;;3.95;84.04;99166.63;5076384;28;20297;-66
2023/02/04 02:23:07;;;;;;;0.73;0.73;;;;;;;3.94;83.76;99174.16;5076399;28;20487;-66
2023/02/04 02:25:38;;;;;;;0.30;0.30;;;;;;;3.94;84.28;99175.00;5076419;28;20052;-65
2023/02/04 02:28:11;;;;;;;0.50;0.50;;;;;;;3.92;84.30;99169.09;5075170;28;20421;-66
2023/02/04 02:30:41;;;;;;;0.45;0.45;;;;;;;3.91;83.90;99162.34;5074639;28;20090;-65
2023/02/04 02:33:10;;;;;;;0.10;0.10;;;;;;;3.88;83.98;99169.03;5075913;28;20046;-65
2023/02/04 02:35:39;;;;;;;0.20;0.20;;;;;;;3.88;84.15;99163.97;5075906;28;20115;-65
2023/02/04 02:38:07;;;;;;;0.77;0.60;;;;;;;3.83;84.58;99158.00;5075828;28;20094;-65
2023/02/04 02:40:38;;;;;;;0.55;0.55;;;;;;;3.83;84.81;99163.91;5075670;28;20048;-65
2023/02/04 02:43:11;;;;;;;0.20;0.20;;;;;;;3.84;84.35;99150.44;5075805;28;20080;-65
2023/02/04 02:45:39;;;;;;;0.47;0.47;;;;;;;3.83;84.72;99147.91;5090967;28;20495;-64
2023/02/04 02:48:10;;;;;;;0.20;0.20;;;;;;;3.78;85.06;99146.97;5075469;28;20044;-64
2023/02/04 02:50:40;;;;;;;1.35;1.30;;;;;;;3.73;85.38;99141.84;5075586;28;20343;-64
2023/02/04 02:53:12;;;;;;;0.70;0.70;;;;;;;3.67;85.13;99136.66;5075571;28;20064;-64
2023/02/04 02:55:44;;;;;;;3.53;1.45;;;;;;;3.65;85.32;99142.50;5075509;28;20048;-64
2023/02/04 02:58:21;;;;;;;0.40;0.40;;;;;;;3.63;85.03;99145.00;5075769;28;20399;-64
2023/02/04 03:00:50;;;;;;;0.55;0.55;;;;;;;3.60;85.39;99144.94;5075697;28;20135;-64
2023/02/04 03:03:24;;;;;;;0.73;0.65;;;;;;;3.60;85.83;99137.38;5073965;28;20059;-64
2023/02/04 03:05:57;;;;;;;1.73;1.60;;;;;;;3.58;85.52;99131.47;5075301;28;20058;-63
2023/02/04 03:08:28;;;;;;;0.85;0.65;;;;;;;3.58;85.92;99121.38;5075832;28;20052;-64
2023/02/04 03:10:58;;;;;;;7.35;2.60;;;;;;;3.54;86.17;99109.53;5073878;28;20093;-64
2023/02/04 03:13:28;;;;;;;0.40;0.40;;;;;;;3.57;85.91;99114.66;5075220;28;20072;-63
2023/02/04 03:15:58;;;;;;;4.93;2.45;;;;;;;3.62;86.00;99124.81;5075078;28;20075;-64
2023/02/04 03:18:30;;;;;;;1.55;1.45;;;;;;;3.63;85.96;99119.78;5075407;28;20053;-64
2023/02/04 03:20:59;;;;;;;4.28;0.90;;;;;;;3.65;85.97;99123.19;5074221;28;20044;-64
2023/02/04 03:23:27;;;;;;;0.55;0.55;;;;;;;3.60;86.48;99114.69;5073683;28;20094;-64
2023/02/04 03:25:58;;;;;;;1.03;1.03;;;;;;;3.53;86.33;99112.06;5075177;28;20494;-64
2023/02/04 03:28:26;;;;;;;0.40;0.40;;;;;;;3.53;86.66;99102.78;5075187;28;20044;-65
2023/02/04 03:30:55;;;;;;;0.30;0.30;;;;;;;3.58;87.10;99095.28;5074692;28;20033;-64
2023/02/04 03:33:30;;;;;;;0.30;0.30;;;;;;;3.62;87.00;99094.53;5075105;28;20128;-65
2023/02/04 03:35:59;;;;;;;6.13;1.05;;;;;;;3.62;86.94;99087.84;5075275;28;20281;-64
2023/02/04 03:38:28;;;;;;;0.30;0.30;;;;;;;3.72;86.20;99092.19;5074650;28;20049;-64
2023/02/04 03:40:58;;;;;;;0.30;0.30;;;;;;;3.75;86.43;99094.78;5074920;28;20045;-64
2023/02/04 03:43:28;;;;;;;0.85;0.85;;;;;;;3.77;86.33;99077.97;5074532;28;20044;-64
2023/02/04 03:45:57;;;;;;;0.30;0.30;;;;;;;3.81;86.34;99084.78;5074534;28;20040;-64
2023/02/04 03:48:26;;;;;;;0.33;0.33;;;;;;;3.82;86.95;99086.47;5075039;28;20426;-65
2023/02/04 03:50:54;;;;;;;0.30;0.30;;;;;;;3.84;86.81;99084.81;5074301;28;20036;-65
2023/02/04 03:53:23;;;;;;;0.30;0.30;;;;;;;3.85;86.29;99094.09;5074566;28;20481;-65
2023/02/04 03:55:52;;;;;;;0.30;0.30;;;;;;;3.83;86.23;99103.31;5074312;28;20054;-65
2023/02/04 03:58:22;;;;;;;0.30;0.30;;;;;;;3.82;86.51;99121.81;5074277;28;20071;-66
2023/02/04 04:00:52;;;;;;;0.40;0.40;;;;;;;3.79;87.03;99110.81;5073720;28;20044;-65
2023/02/04 04:03:20;;;;;;;0.30;0.30;;;;;;;3.77;86.62;99115.81;5073964;28;20125;-65
2023/02/04 04:05:49;;;;;;;0.13;0.13;;;;;;;3.73;86.68;99120.78;5074274;28;20055;-65
2023/02/04 04:08:19;;;;;;;0.30;0.30;;;;;;;3.70;86.71;99135.88;5074432;28;20048;-65
2023/02/04 04:10:48;;;;;;;0.73;0.73;;;;;;;3.65;87.60;99158.50;5073951;28;20052;-66
2023/02/04 04:13:16;;;;;;;0.60;0.60;;;;;;;3.63;87.24;99165.19;5074022;28;20043;-66
2023/02/04 04:15:46;;;;;;;0.30;0.30;;;;;;;3.59;87.82;99163.44;5073912;28;20052;-65
2023/02/04 04:18:15;;;;;;;0.40;0.40;;;;;;;3.55;87.59;99175.97;5074249;28;20051;-65
2023/02/04 04:20:44;;;;;;;0.30;0.30;;;;;;;3.49;88.24;99154.00;5073870;28;20040;-66
2023/02/04 04:23:13;;;;;;;0.30;0.30;;;;;;;3.47;88.60;99153.13;5074167;28;20037;-66
2023/02/04 04:25:42;;;;;;;0.30;0.30;;;;;;;3.43;87.88;99166.53;5073846;28;20049;-66
2023/02/04 04:28:11;;;;;;;0.30;0.30;;;;;;;3.44;87.67;99177.44;5073815;28;20524;-67
2023/02/04 04:30:40;;;;;;;0.30;0.30;;;;;;;3.46;88.10;99195.97;5073749;28;20052;-68
2023/02/04 04:33:10;;;;;;;0.20;0.20;;;;;;;3.49;87.56;99201.94;5073739;28;20047;-68
2023/02/04 04:35:39;;;;;;;0.32;0.32;;;;;;;3.45;87.01;99212.78;5073752;28;20048;-68
2023/02/04 04:38:08;;;;;;;0.30;0.30;;;;;;;3.43;87.67;99209.41;5073857;28;20048;-70
2023/02/04 04:40:37;;;;;;;;;;;;;;;3.44;86.89;99223.69;5074361;28;20091;-69
2023/02/04 04:43:06;;;;;;;0.30;0.30;;;;;;;3.43;87.03;99222.00;5073573;28;19999;-69
2023/02/04 04:45:35;;;;;;;0.30;0.30;;;;;;;3.44;86.38;99230.41;5073589;28;20045;-68
2023/02/04 04:48:04;;;;;;;0.30;0.30;;;;;;;3.43;86.74;99232.09;5073745;28;20719;-69
2023/02/04 04:50:34;;;;;;;0.20;0.20;;;;;;;3.41;86.56;99243.78;5073421;28;20581;-69
2023/02/04 04:53:03;;;;;;;0.30;0.30;;;;;;;3.41;86.15;99242.97;5073569;28;20072;-71
2023/02/04 04:55:32;;;;;;;;;;;;;;;3.36;86.67;99263.03;5073867;28;20048;-68
2023/02/04 04:58:01;;;;;;;0.30;0.30;;;;;;;3.31;86.24;99254.53;5073304;28;19921;-69
2023/02/04 05:00:30;;;;;;;0.37;0.37;;;;;;;3.28;86.31;99272.13;5073417;28;20079;-70
2023/02/04 05:03:00;;;;;;;0.30;0.30;;;;;;;3.24;86.42;99260.25;5073308;28;20049;-68
2023/02/04 05:05:28;;;;;;;0.40;0.40;;;;;;;3.23;86.42;99273.69;5073976;28;20072;-68
2023/02/04 05:07:58;;;;;;;0.30;0.30;;;;;;;3.23;86.64;99278.72;5073309;28;20064;-67
2023/02/04 05:10:27;;;;;;;0.30;0.30;;;;;;;3.21;85.59;99278.69;5073663;28;20044;-68
2023/02/04 05:12:56;;;;;;;0.30;0.30;;;;;;;3.22;86.65;99285.44;5076812;28;20486;-68
2023/02/04 05:15:25;;;;;;;0.45;0.45;;;;;;;3.23;85.76;99293.84;5077426;28;20041;-69
2023/02/04 05:17:54;;;;;;;0.38;0.38;;;;;;;3.24;85.80;99286.31;5077392;28;20403;-70
2023/02/04 05:20:23;;;;;;;0.33;0.33;;;;;;;3.23;85.03;99293.84;5077618;28;20432;-70
2023/02/04 05:22:52;;;;;;;0.20;0.20;;;;;;;3.26;84.79;99293.94;5077306;28;20066;-69
2023/02/04 05:25:23;;;;;;;0.50;0.50;;;;;;;3.25;85.09;99302.28;5077523;28;20043;-69
2023/02/04 05:27:51;;;;;;;0.30;0.30;;;;;;;3.25;84.77;99314.91;5077215;28;20544;-69
2023/02/04 05:30:21;;;;;;;1.00;0.90;;;;;;;3.24;84.10;99325.78;5076909;28;20521;-71
2023/02/04 05:32:49;;;;;;;0.28;0.28;;;;;;;3.23;84.29;99344.28;5077626;28;20453;-70
2023/02/04 05:35:19;;;;;;;0.20;0.20;;;;;;;3.25;84.10;99363.66;5077034;28;20072;-70
2023/02/04 05:37:48;;;;;;;0.30;0.30;;;;;;;3.21;83.67;99368.59;5076961;28;20040;-71
2023/02/04 05:40:17;;;;;;;0.30;0.30;;;;;;;3.09;82.90;99381.78;5075917;28;20079;-70
2023/02/04 05:42:47;;;;;;;0.30;0.30;;;;;;;3.06;82.31;99395.97;5076834;28;20124;-71
2023/02/04 05:45:17;;;;;;;0.52;0.52;;;;;;;2.95;82.11;99403.25;5077109;28;20494;-72
2023/02/04 05:47:46;;;;;;;0.80;0.73;;;;;;;2.81;81.70;99409.63;5077343;28;20074;-71
2023/02/04 05:50:16;;;;;;;0.50;0.50;;;;;;;2.86;80.65;99418.16;5076566;28;20041;-70
2023/02/04 05:52:45;;;;;;;1.50;1.40;;;;;;;2.83;79.90;99437.41;5076891;28;20520;-70
2023/02/04 05:55:13;;;;;;;0.50;0.50;;;;;;;2.77;78.30;99427.16;5076643;28;20040;-71
2023/02/04 05:57:42;;;;;;;0.30;0.30;;;;;;;2.75;77.68;99452.31;5075608;28;20045;-69
2023/02/04 06:00:14;;;;;;;0.38;0.38;;;;;;;2.68;77.54;99445.41;5076520;28;20119;-71
2023/02/04 06:02:43;;;;;;;0.40;0.40;;;;;;;2.65;76.86;99473.03;5076405;28;20098;-71
2023/02/04 06:05:12;;;;;;;2.28;1.08;;;;;;;2.61;76.42;99472.09;5076448;28;20048;-69
2023/02/04 06:07:41;;;;;;;0.83;0.83;;;;;;;2.54;75.87;99479.44;5076717;28;20486;-71
2023/02/04 06:10:11;;;;;;;0.57;0.57;;;;;;;2.48;75.40;99467.53;5076601;28;20289;-71
2023/02/04 06:12:40;;;;;;;0.88;0.88;;;;;;;2.44;76.04;99498.47;5076234;28;20059;-70
2023/02/04 06:15:09;;;;;;;0.30;0.30;;;;;;;2.41;75.91;99505.06;5076533;28;20144;-69
2023/02/04 06:17:39;;;;;;;0.40;0.40;;;;;;;2.36;76.22;99499.91;5076213;28;20040;-68
2023/02/04 06:20:11;;;;;;;0.30;0.30;;;;;;;2.34;75.58;99536.78;5076114;28;20136;-70
2023/02/04 06:22:39;;;;;;;1.08;0.98;;;;;;;2.31;75.65;99520.72;5075883;28;20558;-68
2023/02/04 06:25:08;;;;;;;0.30;0.30;;;;;;;2.27;76.50;99519.81;5076035;28;20123;-68
2023/02/04 06:27:37;;;;;;;0.50;0.50;;;;;;;2.24;76.53;99523.88;5076023;28;20033;-69
2023/02/04 06:30:07;;;;;;;0.50;0.50;;;;;;;2.20;76.16;99535.53;5075911;28;20128;-69
2023/02/04 06:32:36;;;;;;;1.10;1.10;;;;;;;2.20;76.05;99547.25;5075829;28;20045;-70
2023/02/04 06:35:07;;;;;;;0.93;0.93;;;;;;;2.16;75.45;99561.41;5075861;28;20491;-71
2023/02/04 06:37:36;;;;;;;0.22;0.22;;;;;;;2.13;75.57;99565.50;5076133;28;20054;-70
2023/02/04 06:40:06;;;;;;;0.63;0.63;;;;;;;2.11;75.45;99583.09;5075851;28;20036;-71
2023/02/04 06:42:35;;;;;;;0.57;0.57;;;;;;;2.07;76.65;99571.19;5075662;28;20040;-70
2023/02/04 06:45:04;;;;;;;2.67;2.43;;;;;;;2.07;75.88;99587.94;5074538;28;20040;-71
2023/02/04 06:47:33;;;;;;;0.20;0.20;;;;;;;2.06;75.96;99597.19;5075648;28;20072;-69
2023/02/04 06:50:01;;;;;;;0.50;0.50;;;;;;;2.04;75.70;99596.25;5078837;28;20080;-72
2023/02/04 06:52:32;;;;;;;0.43;0.43;;;;;;;2.02;75.77;99593.69;5095644;28;20036;-70
2023/02/04 06:55:00;;;;;;;0.90;0.75;;;;;;;2.01;75.77;99596.19;5095600;28;20135;-70
2023/02/04 06:57:29;;;;;;;0.68;0.68;;;;;;;1.99;76.04;99592.78;5095691;28;20071;-70
2023/02/04 07:00:00;;;;;;;0.40;0.40;;;;;;;1.90;75.88;99597.47;5095623;28;20036;-70
2023/02/04 07:02:28;;;;;;;0.60;0.60;;;;;;;1.93;75.11;99620.25;5095325;28;20040;-70
2023/02/04 07:04:59;;;;;;;0.80;0.80;;;;;;;1.91;75.51;99625.22;5096070;28;20064;-70
2023/02/04 07:07:28;;;;;;;0.95;0.93;;;;;;;1.89;75.28;99631.03;5095844;28;20048;-69
2023/02/04 07:09:58;;;;;;;0.40;0.40;;;;;;;1.88;74.56;99644.38;5095547;28;20101;-69
2023/02/04 07:12:27;;;;;;;0.93;0.93;;;;;;;1.85;75.23;99669.44;5095333;28;20299;-69
2023/02/04 07:14:55;;;;;;;0.53;0.53;;;;;;;1.85;74.77;99676.97;5095270;28;20097;-70
2023/02/04 07:17:24;;;;;;;0.50;0.50;;;;;;;1.86;74.93;99691.28;5095312;28;20040;-70
2023/02/04 07:19:53;;;;;;;0.50;0.50;;;;;;;1.84;75.16;99702.97;5095177;28;20293;-70
2023/02/04 07:22:22;;;;;;;0.50;0.50;;;;;;;1.85;75.08;99712.22;5095450;28;20486;-69
2023/02/04 07:24:51;;;;;;;0.25;0.25;;;;;;;1.86;74.39;99729.03;5094993;28;20039;-69
2023/02/04 07:27:21;;;;;;;0.50;0.50;;;;;;;1.87;74.71;99728.25;5095348;28;20036;-69
2023/02/04 07:29:50;;;;;;;0.40;0.40;;;;;;;1.90;73.78;99744.28;5095082;28;20054;-69
2023/02/04 07:32:18;;;;;;;0.47;0.47;;;;;;;1.91;73.83;99750.19;5094889;28;20093;-70
2023/02/04 07:34:47;;;;;;;0.57;0.57;;;;;;;1.87;73.62;99754.22;5093997;28;20070;-71
2023/02/04 07:37:16;;;;;;;0.40;0.40;;;;;;;1.87;73.81;99765.97;5094841;28;20048;-70
2023/02/04 07:39:45;;;;;;;1.08;0.95;;;;;;;1.86;73.67;99774.31;5094847;28;20367;-69
2023/02/04 07:42:14;;;;;;;0.60;0.60;;;;;;;1.82;74.03;99775.03;5094748;28;20040;-66
2023/02/04 07:44:53;;;;;;;0.30;0.30;;;;;;;1.84;74.25;99788.50;5093596;28;20493;-71
2023/02/04 07:47:22;;;;;;;0.38;0.38;;;;;;;1.83;73.45;99792.69;5095123;28;20048;-69
2023/02/04 07:49:51;;;;;;;2.17;1.20;;;;;;;1.86;73.57;99814.56;5094622;28;20127;-69
2023/02/04 07:52:19;;;;;;;0.70;0.70;;;;;;;1.90;73.01;99826.44;5094853;28;20123;-70
2023/02/04 07:54:48;;;;;;;0.70;0.70;;;;;;;1.93;72.99;99834.13;5094472;28;20044;-70
2023/02/04 07:57:17;;;;;;;0.57;0.57;;;;;;;1.95;73.77;99848.47;5094839;28;20401;-69
2023/02/04 07:59:48;;;;;;;0.80;0.80;;;;;;;1.99;73.07;99867.91;5094429;28;20057;-67
2023/02/04 08:02:18;;;;;;;0.50;0.50;;;;;;;2.06;73.17;99876.56;5094335;28;20477;-71
2023/02/04 08:04:47;;;;;;;0.55;0.55;;;;;;;2.09;72.66;99876.63;5094380;28;20498;-69
2023/02/04 08:07:15;;;;;;;0.60;0.60;;;;;;;2.12;72.19;99886.81;5094388;28;20066;-69
2023/02/04 08:09:45;;;;;;;0.50;0.50;;;;;;;2.15;72.92;99897.00;5094479;28;20390;-68
2023/02/04 08:12:14;;;;;;;0.65;0.65;;;;;;;2.15;72.25;99906.22;5094394;28;20094;-71
2023/02/04 08:14:43;;;;;;;0.60;0.60;;;;;;;2.14;72.72;99902.84;5094208;28;20047;-70
2023/02/04 08:17:12;;;;;;;0.67;0.67;;;;;;;2.24;72.78;99920.00;5094043;28;20482;-70
2023/02/04 08:19:42;;;;;;;0.40;0.40;;;;;;;2.21;73.43;99944.22;5094115;28;20075;-71
2023/02/04 08:22:11;;;;;;;0.50;0.50;;;;;;;2.16;73.07;99943.19;5094347;28;20130;-71
2023/02/04 08:24:40;;;;;;;0.77;0.77;;;;;;;2.14;73.60;99954.81;5094404;28;20043;-71
2023/02/04 08:27:09;;;;;;;0.43;0.43;;;;;;;2.10;73.55;99953.00;5094254;28;20464;-70
2023/02/04 08:29:38;;;;;;;0.40;0.40;;;;;;;2.12;73.76;99957.31;5093696;28;20401;-71
2023/02/04 08:32:08;;;;;;;0.50;0.50;;;;;;;2.11;73.36;99978.25;5093724;28;20044;-70
2023/02/04 08:34:38;;;;;;;0.30;0.30;;;;;;;2.10;73.55;99994.16;5094142;28;20094;-72
2023/02/04 08:37:08;;;;;;;0.40;0.40;;;;;;;2.12;73.66;99981.59;5084837;28;20093;-70
2023/02/04 08:39:38;;;;;;;0.40;0.40;;;;;;;2.10;73.12;99999.19;5090684;28;20272;-72
2023/02/04 08:42:07;;;;;;;0.77;0.77;;;;;;;2.08;72.78;100008.34;5092553;28;20514;-72
2023/02/04 08:44:35;;;;;;;0.97;0.97;;;;;;;2.03;72.98;100007.31;5093675;28;20032;-71
2023/02/04 08:47:04;;;;;;;0.93;0.93;;;;;;;2.04;72.28;100019.06;5074285;28;20055;-71
2023/02/04 08:49:33;;;;;;;0.20;0.20;;;;;;;2.02;72.70;100030.75;5073889;28;20045;-70
2023/02/04 08:52:03;;;;;;;1.40;1.13;;;;;;;2.04;72.24;100034.16;5073465;28;20128;-70
2023/02/04 08:54:34;;;;;;;0.85;0.85;;;;;;;2.00;72.97;100037.38;5072372;28;20044;-71
2023/02/04 08:57:03;;;;;;;0.20;0.20;;;;;;;1.91;72.47;100049.63;5073473;28;20044;-70
2023/02/04 08:59:32;;;;;;;0.43;0.43;;;;;;;1.90;72.30;100073.03;5073347;28;20040;-71
2023/02/04 09:02:01;;;;;;;2.35;1.95;;;;;;;1.87;73.00;100085.53;5073409;28;20052;-72
2023/02/04 09:04:30;;;;;;;0.22;0.22;;;;;;;1.86;71.89;100074.59;5073592;28;20082;-69
2023/02/04 09:06:59;;;;;;;0.35;0.35;;;;;;;1.87;72.74;100100.63;5073433;28;20048;-72
2023/02/04 09:09:28;;;;;;;0.43;0.43;;;;;;;1.89;71.91;100088.97;5073298;28;20571;-69
2023/02/04 09:11:58;;;;;;;0.75;0.60;;;;;;;1.92;71.70;100114.25;5073685;28;20069;-70
2023/02/04 09:14:27;;;;;;;0.32;0.32;;;;;;;1.93;71.28;100116.81;5073303;28;20402;-69
2023/02/04 09:16:56;;;;;;;0.40;0.40;;;;;;;1.96;71.97;100128.66;5073497;28;20563;-71
2023/02/04 09:19:25;;;;;;;0.57;0.57;;;;;;;1.96;71.83;100124.50;5091198;28;20428;-70
2023/02/04 09:21:54;;;;;;;0.43;0.43;;;;;;;1.95;71.25;100140.38;5093428;28;20072;-66
2023/02/04 09:24:23;;;;;;;0.30;0.30;;;;;;;1.92;70.85;100160.38;5093393;28;20098;-69
2023/02/04 09:26:52;;;;;;;0.30;0.30;;;;;;;1.94;71.55;100163.00;5093993;28;20040;-67
2023/02/04 09:29:22;;;;;;;0.27;0.27;;;;;;;1.94;71.02;100176.41;5093328;28;20071;-67
2023/02/04 09:31:51;;;;;;;0.20;0.20;;;;;;;1.97;70.61;100198.31;5093220;28;20575;-68
2023/02/04 09:34:20;;;;;;;0.30;0.30;;;;;;;1.96;70.78;100214.25;5093498;28;20040;-69
2023/02/04 09:36:49;;;;;;;0.35;0.35;;;;;;;1.94;70.46;100218.34;5093483;28;20123;-68
2023/02/04 09:39:17;;;;;;;0.40;0.40;;;;;;;1.97;71.03;100210.91;5093264;28;20074;-68
2023/02/04 09:41:46;;;;;;;0.40;0.40;;;;;;;1.96;70.75;100222.66;5093769;28;20382;-67
2023/02/04 09:44:19;;;;;;;0.37;0.37;;;;;;;1.98;70.41;100235.28;5093102;28;20055;-67
2023/02/04 09:46:51;;;;;;;0.50;0.50;;;;;;;2.06;70.36;100241.53;5093455;28;20043;-67
2023/02/04 09:49:19;;;;;;;0.95;0.50;;;;;;;2.12;69.36;100244.28;5093142;28;20048;-68
2023/02/04 09:51:50;;;;;;;0.47;0.47;;;;;;;2.03;69.28;100223.75;5093105;28;20044;-67
2023/02/04 09:54:20;;;;;;;5.80;1.67;;;;;;;2.15;68.91;100243.53;5092954;28;20048;-67
2023/02/04 09:56:50;;;;;;;0.38;0.38;;;;;;;2.18;68.82;100254.63;5093251;28;20052;-68
2023/02/04 09:59:20;;;;;;;;;;;;;;;2.18;68.99;100264.69;5096962;28;20126;-67
2023/02/04 10:01:55;;;;;;;0.70;0.70;;;;;;;2.20;68.90;100270.63;5096714;28;19920;-68
2023/02/04 10:04:24;;;;;;;0.32;0.32;;;;;;;2.15;68.62;100259.50;5096768;28;20105;-67
2023/02/04 10:06:57;;;;;;;0.40;0.40;;;;;;;2.16;68.72;100276.31;5096611;28;20101;-69
2023/02/04 10:09:26;;;;;;;0.70;0.70;;;;;;;2.18;68.31;100261.31;5096698;28;20046;-68
2023/02/04 10:11:55;;;;;;;0.30;0.30;;;;;;;2.23;68.22;100288.38;5096504;28;20044;-68
2023/02/04 10:14:24;;;;;;;0.30;0.30;;;;;;;2.40;67.91;100292.44;5096723;28;20032;-68
2023/02/04 10:16:57;;;;;;;0.40;0.40;;;;;;;2.49;68.15;100302.94;5096764;28;20545;-69
2023/02/04 10:19:28;;;;;;;0.75;0.70;;;;;;;2.52;67.05;100300.50;5095541;28;20523;-66
2023/02/04 10:21:58;;;;;;;0.32;0.32;;;;;;;2.61;66.61;100295.00;5096704;28;20047;-68
2023/02/04 10:24:29;;;;;;;0.50;0.50;;;;;;;2.75;66.86;100318.22;5096637;28;20048;-66
2023/02/04 10:27:08;;;;;;;0.35;0.35;;;;;;;2.95;66.88;100315.69;5096373;28;20060;-68
2023/02/04 10:29:39;;;;;;;0.40;0.40;;;;;;;3.08;66.89;100324.59;5096306;28;20050;-68
2023/02/04 10:32:28;;;;;;;0.40;0.40;;;;;;;3.26;66.84;100332.91;5112021;28;20138;-67
2023/02/04 10:34:59;;;;;;;0.35;0.35;;;;;;;3.28;66.64;100331.28;5096048;28;20113;-69
2023/02/04 10:37:28;;;;;;;0.40;0.40;;;;;;;3.34;65.84;100331.53;5096682;28;20075;-69
2023/02/04 10:39:57;;;;;;;0.60;0.60;;;;;;;3.44;65.04;100345.34;5096075;28;20044;-70
2023/02/04 10:42:28;;;;;;;0.30;0.30;;;;;;;3.52;65.11;100357.47;5096682;28;20037;-69
2023/02/04 10:44:58;;;;;;;0.75;0.75;;;;;;;3.29;65.22;100348.13;5095999;28;20101;-67
2023/02/04 10:47:30;;;;;;;2.10;0.88;;;;;;;3.17;64.76;100385.47;5095778;28;20389;-67
2023/02/04 10:50:03;;;;;;;0.73;0.73;;;;;;;3.06;65.83;100367.41;5095938;28;20052;-69
2023/02/04 10:52:37;;;;;;;1.45;0.95;;;;;;;3.06;66.32;100387.59;5095814;28;20086;-68
2023/02/04 10:55:14;;;;;;;0.88;0.88;;;;;;;2.79;66.05;100393.16;5095605;28;20044;-68
2023/02/04 10:57:45;;;;;;;0.57;0.57;;;;;;;2.62;66.02;100420.16;5096043;28;20397;-69
2023/02/04 11:00:21;;;;;;;0.50;0.50;;;;;;;2.53;66.38;100420.66;5095943;28;20047;-68
2023/02/04 11:02:57;;;;;;;0.68;0.68;;;;;;;2.46;66.03;100423.72;5095508;28;20051;-66
2023/02/04 11:05:31;;;;;;;0.60;0.60;;;;;;;2.41;66.66;100432.72;5095918;28;20131;-67
2023/02/04 11:08:00;;;;;;;0.60;0.60;;;;;;;2.39;66.05;100431.78;5095655;28;20048;-69
2023/02/04 11:10:31;;;;;;;0.30;0.30;;;;;;;2.40;66.56;100446.09;5096055;28;20470;-68
2023/02/04 11:13:03;;;;;;;1.02;0.95;;;;;;;2.33;65.67;100449.13;5095437;28;20051;-68
2023/02/04 11:15:56;;;;;;;0.30;0.30;;;;;;;2.39;65.11;100477.13;5095399;28;20047;-69
2023/02/04 11:18:30;;;;;;;0.65;0.65;;;;;;;2.45;65.24;100487.47;5094301;28;20054;-68
2023/02/04 11:21:00;;;;;;;0.55;0.55;;;;;;;2.54;64.54;100495.41;5095599;28;20052;-68
2023/02/04 11:23:37;;;;;;;2.40;0.77;;;;;;;2.56;63.31;100493.84;5095270;28;20032;-68
2023/02/04 11:26:12;;;;;;;0.47;0.47;;;;;;;2.60;62.79;100512.47;5095171;28;20072;-69
2023/02/04 11:28:48;;;;;;;0.43;0.43;;;;;;;2.70;63.50;100515.47;5095460;28;20040;-68
2023/02/04 11:31:29;;;;;;;0.43;0.43;;;;;;;2.76;62.67;100534.19;5095180;28;20444;-68
2023/02/04 11:34:24;;;;;;;1.08;0.90;;;;;;;3.05;61.77;100534.63;5094984;28;20052;-70
2023/02/04 11:37:08;;;;;;;0.63;0.63;;;;;;;3.33;61.33;100529.97;5095008;28;20097;-68
2023/02/04 11:39:40;;;;;;;0.20;0.20;;;;;;;3.31;61.74;100543.31;5094864;28;20066;-69
2023/02/04 11:42:18;;;;;;;0.30;0.30;;;;;;;3.21;61.70;100553.81;5110690;28;20044;-69
2023/02/04 11:44:56;;;;;;;0.65;0.65;;;;;;;2.98;61.37;100557.84;5094787;28;20048;-68
2023/02/04 11:47:27;;;;;;;0.30;0.30;;;;;;;2.85;61.20;100549.69;5095100;28;20043;-69
2023/02/04 11:50:01;;;;;;;0.30;0.30;;;;;;;2.84;61.54;100556.38;5094819;28;20044;-70
2023/02/04 11:52:30;;;;;;;1.00;0.95;;;;;;;2.79;62.27;100564.53;5094984;28;20047;-69